Time;durP1;ratioP1;P1;durP2;ratioP2;P2;SDS_P1;SDS_P2;PMS_P1;PMS_P2;Temp;Humidity;BMP_temperature;BMP_pressure;BME280_temperature;BME280_humidity;BME280_pressure;Samples;Min_cycle;Max_cycle;Signal;HPM_P1;HPM_P2
2021/07/02 00:00:06;;;;;;;3.63;1.42;;;;;;;18.63;71.63;99887.53;5095768;28;20043;-76
2021/07/02 00:02:40;;;;;;;3.90;1.30;;;;;;;18.47;72.81;99885.50;5095642;28;20036;-75
2021/07/02 00:05:09;;;;;;;2.38;1.10;;;;;;;18.43;74.27;99884.94;5095807;28;20052;-76
2021/07/02 00:07:41;;;;;;;1.90;1.20;;;;;;;18.45;73.04;99874.84;5095410;28;20449;-76
2021/07/02 00:10:11;;;;;;;3.95;1.38;;;;;;;18.39;74.46;99877.28;5095735;28;20043;-77
2021/07/02 00:12:41;;;;;;;3.60;1.30;;;;;;;18.36;75.33;99883.84;5095429;28;20504;-80
2021/07/02 00:15:12;;;;;;;1.90;1.17;;;;;;;18.22;74.79;99879.78;5095722;28;20040;-73
2021/07/02 00:17:40;;;;;;;2.10;1.02;;;;;;;18.24;74.96;99883.22;5095118;28;20044;-73
2021/07/02 00:20:09;;;;;;;3.30;1.25;;;;;;;18.20;76.09;99884.50;5095641;28;20118;-81
2021/07/02 00:22:37;;;;;;;3.42;1.25;;;;;;;18.14;76.40;99885.06;5095442;28;20052;-81
2021/07/02 00:25:09;;;;;;;2.15;1.17;;;;;;;18.02;76.12;99902.47;5095579;28;20040;-80
2021/07/02 00:27:37;;;;;;;2.15;1.33;;;;;;;18.10;75.66;99894.50;5094258;28;20040;-80
2021/07/02 00:30:07;;;;;;;3.30;1.33;;;;;;;17.98;76.02;99885.75;5095436;28;20398;-82
2021/07/02 00:32:36;;;;;;;2.38;1.40;;;;;;;18.02;78.92;99881.72;5094903;28;20040;-80
2021/07/02 00:35:05;;;;;;;2.92;1.30;;;;;;;17.93;76.47;99879.06;5094787;28;20388;-79
2021/07/02 00:37:33;;;;;;;2.80;1.48;;;;;;;17.90;77.94;99882.09;5094994;28;20433;-79
2021/07/02 00:40:01;;;;;;;2.28;1.30;;;;;;;17.93;77.91;99876.38;5095390;28;20139;-78
2021/07/02 00:42:31;;;;;;;2.30;1.40;;;;;;;17.91;77.59;99872.97;5094788;28;20036;-82
2021/07/02 00:45:03;;;;;;;2.20;1.20;;;;;;;17.86;76.72;99864.50;5095045;28;20048;-78
2021/07/02 00:47:31;;;;;;;2.50;1.40;;;;;;;17.84;76.22;99867.31;5094956;28;20422;-79
2021/07/02 00:49:59;;;;;;;3.08;1.55;;;;;;;17.91;76.66;99860.34;5094747;28;20052;-79
2021/07/02 00:52:28;;;;;;;1.92;1.30;;;;;;;17.93;76.65;99860.19;5094853;28;20375;-78
2021/07/02 00:54:56;;;;;;;2.05;1.30;;;;;;;17.96;74.90;99854.50;5094775;28;20085;-78
2021/07/02 00:57:25;;;;;;;2.30;1.30;;;;;;;17.87;76.40;99850.84;5094494;28;20040;-78
2021/07/02 00:59:55;;;;;;;1.73;1.30;;;;;;;17.87;75.73;99853.56;5076059;28;20052;-78
2021/07/02 01:02:23;;;;;;;1.90;1.20;;;;;;;17.79;75.78;99852.59;5076732;28;20044;-78
2021/07/02 01:04:51;;;;;;;1.52;1.15;;;;;;;17.91;75.18;99854.09;5094237;28;20124;-79
2021/07/02 01:07:20;;;;;;;1.55;1.10;;;;;;;17.92;74.83;99858.50;5094575;28;20051;-79
2021/07/02 01:09:48;;;;;;;1.92;1.30;;;;;;;17.89;74.03;99856.09;5076147;28;20074;-79
2021/07/02 01:12:16;;;;;;;1.80;1.10;;;;;;;17.81;74.56;99856.00;5094506;28;20127;-80
2021/07/02 01:14:44;;;;;;;1.42;1.02;;;;;;;17.89;74.17;99853.41;5094336;28;20135;-79
2021/07/02 01:17:14;;;;;;;1.98;1.33;;;;;;;17.88;74.19;99849.00;5094542;28;20040;-79
2021/07/02 01:19:47;;;;;;;2.33;1.10;;;;;;;17.83;73.71;99853.97;5094049;28;20486;-78
2021/07/02 01:22:24;;;;;;;2.20;1.20;;;;;;;17.79;73.78;99850.75;5094348;28;20040;-79
2021/07/02 01:24:53;;;;;;;1.67;1.00;;;;;;;17.81;74.96;99861.38;5093835;28;20044;-77
2021/07/02 01:27:22;;;;;;;2.55;1.38;;;;;;;17.82;74.32;99841.50;5094302;28;20040;-80
2021/07/02 01:29:51;;;;;;;1.00;0.90;;;;;;;17.74;74.14;99845.78;5094018;28;20036;-77
2021/07/02 01:32:20;;;;;;;2.05;1.20;;;;;;;17.81;73.33;99845.19;5076041;28;20058;-82
2021/07/02 01:34:49;;;;;;;1.42;1.10;;;;;;;17.79;73.94;99841.81;5093868;28;20051;-83
2021/07/02 01:37:17;;;;;;;1.67;1.10;;;;;;;17.90;72.86;99855.09;5093915;28;20040;-82
2021/07/02 01:39:47;;;;;;;2.83;1.17;;;;;;;17.82;74.47;99854.97;5075936;28;20052;-83
2021/07/02 01:42:15;;;;;;;2.15;1.10;;;;;;;17.87;74.50;99855.41;5093990;28;20114;-83
2021/07/02 01:44:43;;;;;;;1.95;1.23;;;;;;;17.93;73.79;99852.94;5093585;28;20494;-82
2021/07/02 01:47:11;;;;;;;2.92;1.10;;;;;;;17.93;74.64;99854.78;5093829;28;20044;-84
2021/07/02 01:49:39;;;;;;;2.10;1.00;;;;;;;17.83;73.90;99853.97;5093335;28;20483;-83
2021/07/02 01:52:08;;;;;;;1.73;1.10;;;;;;;17.81;73.97;99853.28;5094010;28;20123;-82
2021/07/02 01:54:36;;;;;;;3.42;1.38;;;;;;;17.85;74.81;99852.81;5093714;28;20044;-82
2021/07/02 01:57:11;;;;;;;1.70;1.20;;;;;;;17.82;73.35;99860.38;5093581;28;20036;-84
2021/07/02 01:59:39;;;;;;;1.27;1.00;;;;;;;17.86;74.29;99853.72;5075804;28;20056;-77
2021/07/02 02:02:07;;;;;;;1.80;1.20;;;;;;;17.88;73.61;99862.50;5093503;28;20487;-78
2021/07/02 02:04:37;;;;;;;2.40;1.20;;;;;;;17.90;73.52;99860.50;5093628;28;20040;-77
2021/07/02 02:07:06;;;;;;;1.48;1.00;;;;;;;17.86;73.34;99859.09;5093738;28;20101;-77
2021/07/02 02:09:34;;;;;;;2.50;1.13;;;;;;;17.82;72.97;99852.28;5093414;28;20398;-77
2021/07/02 02:12:03;;;;;;;3.90;1.38;;;;;;;17.82;73.16;99852.28;5093415;28;20130;-79
2021/07/02 02:14:33;;;;;;;1.58;1.10;;;;;;;17.81;73.39;99856.84;5092896;28;20533;-76
2021/07/02 02:17:01;;;;;;;2.25;1.20;;;;;;;17.82;73.08;99858.53;5093294;28;20059;-76
2021/07/02 02:19:30;;;;;;;2.60;1.58;;;;;;;17.71;73.97;99862.25;5093354;28;20048;-74
2021/07/02 02:21:58;;;;;;;1.50;1.20;;;;;;;17.71;74.11;99856.03;5093025;28;20062;-76
2021/07/02 02:24:26;;;;;;;1.92;1.20;;;;;;;17.67;73.43;99860.84;5093350;28;20051;-76
2021/07/02 02:26:55;;;;;;;2.60;1.45;;;;;;;17.57;74.27;99862.72;5092894;28;20048;-78
2021/07/02 02:29:24;;;;;;;2.50;1.40;;;;;;;17.59;75.21;99854.47;5093202;28;20048;-76
2021/07/02 02:31:53;;;;;;;3.53;1.70;;;;;;;17.60;74.44;99862.41;5092902;28;20079;-74
2021/07/02 02:34:21;;;;;;;2.65;1.30;;;;;;;17.59;75.14;99867.97;5074932;28;20059;-75
2021/07/02 02:36:51;;;;;;;2.78;1.63;;;;;;;17.51;75.42;99871.38;5092620;28;20044;-73
2021/07/02 02:39:20;;;;;;;3.35;1.63;;;;;;;17.57;75.25;99867.25;5092992;28;20044;-73
2021/07/02 02:41:48;;;;;;;3.28;1.55;;;;;;;17.53;76.21;99861.28;5092635;28;20066;-76
2021/07/02 02:44:16;;;;;;;3.80;1.83;;;;;;;17.53;74.75;99866.69;5093281;28;20085;-78
2021/07/02 02:46:45;;;;;;;2.67;1.60;;;;;;;17.57;75.24;99867.25;5092605;28;20043;-77
2021/07/02 02:49:16;;;;;;;3.47;2.20;;;;;;;17.55;75.24;99858.44;5092870;28;20482;-76
2021/07/02 02:51:44;;;;;;;4.85;1.80;;;;;;;17.63;74.93;99858.56;5096780;28;20090;-74
2021/07/02 02:54:13;;;;;;;3.55;1.70;;;;;;;17.61;75.38;99864.13;5096760;28;20467;-74
2021/07/02 02:57:03;;;;;;;3.63;2.00;;;;;;;17.59;75.16;99863.41;5096781;28;20168;-76
2021/07/02 02:59:30;;;;;;;2.90;2.15;;;;;;;17.61;75.23;99850.63;5097041;28;20040;-76
2021/07/02 03:01:58;;;;;;;3.00;1.80;;;;;;;17.53;76.32;99857.75;5096618;28;20094;-77
2021/07/02 03:04:28;;;;;;;3.28;1.80;;;;;;;17.56;75.40;99849.34;5096695;28;20044;-76
2021/07/02 03:06:56;;;;;;;4.38;2.10;;;;;;;17.64;75.18;99850.31;5096414;28;20414;-77
2021/07/02 03:09:24;;;;;;;2.80;1.70;;;;;;;17.62;75.95;99846.94;5097142;28;20044;-76
2021/07/02 03:11:52;;;;;;;2.80;1.80;;;;;;;17.69;75.48;99842.69;5096797;28;20123;-78
2021/07/02 03:14:22;;;;;;;3.10;1.52;;;;;;;17.60;75.44;99846.22;5097126;28;20056;-77
2021/07/02 03:16:51;;;;;;;2.38;1.63;;;;;;;17.62;75.74;99846.94;5096767;28;20127;-75
2021/07/02 03:19:20;;;;;;;5.00;1.83;;;;;;;17.54;75.77;99844.13;5096613;28;20040;-78
2021/07/02 03:21:50;;;;;;;3.38;1.83;;;;;;;17.55;75.97;99853.91;5096604;28;20074;-78
2021/07/02 03:24:19;;;;;;;3.00;1.90;;;;;;;17.55;75.30;99851.19;5096700;28;20040;-77
2021/07/02 03:26:47;;;;;;;2.83;1.70;;;;;;;17.55;75.30;99848.50;5096274;28;20486;-76
2021/07/02 03:29:15;;;;;;;3.60;1.80;;;;;;;17.69;74.25;99850.78;5096395;28;20123;-77
2021/07/02 03:31:44;;;;;;;5.00;1.80;;;;;;;17.67;74.04;99852.75;5096264;28;20044;-77
2021/07/02 03:34:12;;;;;;;3.50;2.00;;;;;;;17.66;74.85;99848.34;5096541;28;20097;-77
2021/07/02 03:36:40;;;;;;;4.35;1.70;;;;;;;17.73;74.47;99849.47;5096458;28;20391;-76
2021/07/02 03:39:10;;;;;;;4.65;2.00;;;;;;;17.80;73.95;99836.25;5096454;28;20132;-76
2021/07/02 03:41:38;;;;;;;3.75;1.80;;;;;;;17.76;74.55;99847.47;5096198;28;20044;-77
2021/07/02 03:44:07;;;;;;;3.15;1.50;;;;;;;17.71;74.14;99851.47;5096073;28;20093;-77
2021/07/02 03:46:35;;;;;;;2.70;1.70;;;;;;;17.68;74.42;99850.91;5096318;28;20399;-77
2021/07/02 03:49:04;;;;;;;5.65;1.95;;;;;;;17.67;75.11;99846.50;5095921;28;20044;-75
2021/07/02 03:51:32;;;;;;;3.20;1.65;;;;;;;17.63;75.34;99856.72;5096187;28;20040;-74
2021/07/02 03:54:01;;;;;;;3.28;1.80;;;;;;;17.44;75.93;99832.50;5095925;28;20611;-76
2021/07/02 03:56:30;;;;;;;3.95;2.20;;;;;;;17.46;75.54;99854.78;5095721;28;20040;-75
2021/07/02 03:58:58;;;;;;;3.40;1.85;;;;;;;17.37;75.84;99853.84;5095753;28;20449;-76
2021/07/02 04:01:26;;;;;;;3.72;1.80;;;;;;;17.45;75.66;99856.63;5095789;28;20046;-73
2021/07/02 04:03:55;;;;;;;4.43;2.20;;;;;;;17.54;75.23;99859.44;5095782;28;20040;-74
2021/07/02 04:06:23;;;;;;;2.33;1.58;;;;;;;17.62;75.85;99860.41;5095607;28;20492;-75
2021/07/02 04:08:51;;;;;;;3.70;1.92;;;;;;;17.53;75.26;99858.59;5095201;28;20123;-75
2021/07/02 04:11:19;;;;;;;3.58;1.73;;;;;;;17.46;75.91;99862.88;5095291;28;20075;-75
2021/07/02 04:13:48;;;;;;;4.13;2.08;;;;;;;17.57;75.76;99869.97;5094716;28;20135;-75
2021/07/02 04:16:17;;;;;;;3.70;2.00;;;;;;;17.62;75.12;99857.72;5095343;28;20039;-76
2021/07/02 04:18:45;;;;;;;4.28;2.05;;;;;;;17.78;74.85;99869.78;5095312;28;20077;-74
2021/07/02 04:21:13;;;;;;;5.05;2.00;;;;;;;17.78;74.33;99872.47;5095687;28;20075;-76
2021/07/02 04:23:42;;;;;;;3.95;2.00;;;;;;;17.74;74.97;99866.50;5095135;28;20089;-76
2021/07/02 04:26:10;;;;;;;3.28;2.00;;;;;;;17.73;75.38;99865.66;5095040;28;20441;-77
2021/07/02 04:28:38;;;;;;;3.90;1.75;;;;;;;17.77;75.76;99873.47;5095219;28;20044;-75
2021/07/02 04:31:08;;;;;;;4.93;2.00;;;;;;;17.69;75.59;99861.56;5097999;28;20127;-75
2021/07/02 04:33:37;;;;;;;3.40;2.10;;;;;;;17.78;75.05;99869.78;5096171;28;20044;-77
2021/07/02 04:36:05;;;;;;;3.30;1.90;;;;;;;17.80;74.83;99870.47;5094414;28;20071;-76
2021/07/02 04:38:33;;;;;;;4.43;2.10;;;;;;;17.85;74.49;99876.25;5094786;28;20054;-75
2021/07/02 04:41:02;;;;;;;4.30;2.17;;;;;;;17.75;74.50;99873.59;5094908;28;20044;-77
2021/07/02 04:43:30;;;;;;;4.10;2.35;;;;;;;17.86;74.32;99881.53;5095096;28;20040;-77
2021/07/02 04:45:58;;;;;;;3.70;2.40;;;;;;;17.85;73.99;99897.84;5094494;28;20040;-76
2021/07/02 04:48:44;;;;;;;4.53;2.28;;;;;;;17.83;74.71;99883.66;5094686;28;20040;-77
2021/07/02 04:51:13;;;;;;;4.68;2.35;;;;;;;17.86;74.05;99891.47;5095374;28;20065;-77
2021/07/02 04:53:43;;;;;;;5.10;2.30;;;;;;;17.77;74.64;99892.34;5095135;28;20048;-75
2021/07/02 04:56:12;;;;;;;3.42;2.20;;;;;;;17.87;74.03;99894.03;5094737;28;20044;-75
2021/07/02 04:58:44;;;;;;;4.55;2.20;;;;;;;17.94;73.76;99905.91;5094294;28;20069;-73
2021/07/02 05:01:13;;;;;;;3.55;1.90;;;;;;;17.95;73.84;99893.25;5094383;28;20452;-72
2021/07/02 05:03:43;;;;;;;3.15;2.22;;;;;;;17.95;73.55;99907.63;5094555;28;20372;-73
2021/07/02 05:06:12;;;;;;;4.53;2.53;;;;;;;18.08;73.26;99896.50;5094456;28;20478;-73
2021/07/02 05:08:43;;;;;;;3.63;2.33;;;;;;;18.06;73.01;99903.91;5094212;28;20515;-72
2021/07/02 05:11:12;;;;;;;3.55;2.15;;;;;;;18.15;72.67;99913.81;5093729;28;20466;-71
2021/07/02 05:13:41;;;;;;;3.60;2.40;;;;;;;18.30;72.02;99912.28;5093442;28;20067;-74
2021/07/02 05:16:09;;;;;;;3.45;2.25;;;;;;;18.26;71.57;99919.00;5093934;28;20552;-74
2021/07/02 05:18:38;;;;;;;5.55;2.80;;;;;;;18.27;72.23;99920.69;5094248;28;20040;-74
2021/07/02 05:21:08;;;;;;;4.38;2.13;;;;;;;18.24;71.81;99907.50;5093997;28;20394;-73
2021/07/02 05:23:37;;;;;;;4.60;2.30;;;;;;;18.55;70.75;99908.03;5094178;28;20122;-76
2021/07/02 05:26:05;;;;;;;4.13;2.35;;;;;;;18.66;70.16;99908.84;5093752;28;20043;-75
2021/07/02 05:28:35;;;;;;;4.20;2.40;;;;;;;18.93;69.63;99905.25;5093654;28;20064;-75
2021/07/02 05:31:04;;;;;;;5.20;2.47;;;;;;;19.25;68.27;99905.53;5093832;28;20048;-72
2021/07/02 05:33:32;;;;;;;3.13;2.17;;;;;;;19.53;66.70;99908.13;5093803;28;20070;-74
2021/07/02 05:36:01;;;;;;;4.75;2.50;;;;;;;19.73;65.77;99901.53;5093369;28;20066;-75
2021/07/02 05:38:30;;;;;;;3.00;2.38;;;;;;;19.76;65.93;99909.31;5093572;28;20050;-75
2021/07/02 05:40:58;;;;;;;4.53;2.40;;;;;;;19.68;65.56;99903.84;5093540;28;20093;-79
2021/07/02 05:43:27;;;;;;;4.35;2.03;;;;;;;19.55;65.73;99914.22;5093523;28;20520;-73
2021/07/02 05:45:55;;;;;;;4.07;2.15;;;;;;;19.43;66.36;99914.47;5093625;28;20047;-75
2021/07/02 05:48:24;;;;;;;3.15;2.10;;;;;;;19.56;66.12;99916.78;5093629;28;20445;-74
2021/07/02 05:50:52;;;;;;;4.80;2.50;;;;;;;19.58;65.56;99901.25;5093414;28;20426;-76
2021/07/02 05:53:20;;;;;;;5.30;2.42;;;;;;;19.68;65.66;99903.84;5093510;28;20410;-77
2021/07/02 05:55:50;;;;;;;4.45;2.38;;;;;;;19.93;64.75;99907.56;5093754;28;20119;-77
2021/07/02 05:58:18;;;;;;;3.47;2.05;;;;;;;20.27;63.60;99907.59;5093445;28;20097;-77
2021/07/02 06:00:47;;;;;;;4.00;1.98;;;;;;;20.43;64.09;99904.94;5093524;28;20036;-78
2021/07/02 06:03:15;;;;;;;3.80;2.13;;;;;;;20.21;63.03;99909.06;5093310;28;20067;-77
2021/07/02 06:05:43;;;;;;;3.13;2.30;;;;;;;20.16;63.33;99905.97;5093461;28;20066;-79
2021/07/02 06:08:11;;;;;;;3.47;2.28;;;;;;;20.37;63.79;99902.88;5092935;28;20047;-77
2021/07/02 06:10:42;;;;;;;4.22;2.22;;;;;;;20.75;61.63;99897.91;5093167;28;20040;-77
2021/07/02 06:13:11;;;;;;;4.28;2.35;;;;;;;20.98;60.25;99909.84;5093030;28;20084;-76
2021/07/02 06:15:40;;;;;;;4.00;2.15;;;;;;;20.20;63.46;99917.34;5093304;28;20052;-76
2021/07/02 06:18:10;;;;;;;6.22;2.10;;;;;;;19.81;64.74;99925.94;5092752;28;20044;-79
2021/07/02 06:20:39;;;;;;;3.78;2.22;;;;;;;19.52;65.32;99936.19;5093134;28;20062;-79
2021/07/02 06:23:07;;;;;;;4.05;2.35;;;;;;;19.62;65.26;99928.84;5092852;28;20040;-76
2021/07/02 06:25:35;;;;;;;3.97;2.30;;;;;;;19.70;65.55;99939.75;5092208;28;20447;-80
2021/07/02 06:28:03;;;;;;;7.88;2.13;;;;;;;19.35;66.94;99949.56;5092749;28;20089;-79
2021/07/02 06:30:33;;;;;;;8.35;2.78;;;;;;;19.15;66.83;99954.28;5092965;28;20044;-79
2021/07/02 06:33:01;;;;;;;5.03;2.35;;;;;;;19.26;67.37;99952.34;5092705;28;20474;-76
2021/07/02 06:35:30;;;;;;;3.70;2.38;;;;;;;19.29;66.23;99962.84;5092899;28;20052;-77
2021/07/02 06:37:58;;;;;;;4.40;2.20;;;;;;;19.24;67.01;99965.19;5092431;28;20074;-78
2021/07/02 06:40:26;;;;;;;4.93;2.40;;;;;;;19.36;65.84;99947.72;5092903;28;20459;-75
2021/07/02 06:42:55;;;;;;;4.90;2.63;;;;;;;19.35;65.58;99959.53;5092493;28;20075;-77
2021/07/02 06:45:23;;;;;;;5.13;2.60;;;;;;;19.62;65.40;99953.22;5092895;28;20406;-75
2021/07/02 06:47:57;;;;;;;5.70;2.58;;;;;;;19.55;65.47;99946.69;5092965;28;20439;-75
2021/07/02 06:50:27;;;;;;;3.95;2.35;;;;;;;19.54;65.85;99962.06;5092985;28;20040;-77
2021/07/02 06:52:56;;;;;;;7.57;2.78;;;;;;;19.51;65.84;99962.38;5092587;28;20097;-77
2021/07/02 06:55:25;;;;;;;4.07;2.58;;;;;;;19.21;66.51;99965.50;5092650;28;20064;-77
2021/07/02 06:57:54;;;;;;;5.78;3.05;;;;;;;19.10;67.13;99963.84;5092290;28;20152;-81
2021/07/02 07:00:22;;;;;;;5.45;2.90;;;;;;;18.93;67.62;99962.00;5092585;28;20044;-79
2021/07/02 07:02:52;;;;;;;6.25;3.00;;;;;;;18.76;67.63;99978.03;5092929;28;20036;-79
2021/07/02 07:05:21;;;;;;;3.45;2.38;;;;;;;18.86;68.30;99972.56;5092852;28;20079;-78
2021/07/02 07:07:52;;;;;;;4.32;2.47;;;;;;;18.79;68.19;99974.16;5092772;28;20044;-79
2021/07/02 07:10:21;;;;;;;5.55;2.90;;;;;;;18.69;68.70;99976.94;5092613;28;20127;-78
2021/07/02 07:12:49;;;;;;;4.97;3.03;;;;;;;18.86;68.42;99983.38;5092725;28;20060;-78
2021/07/02 07:15:19;;;;;;;4.40;2.55;;;;;;;19.00;68.06;99982.00;5092221;28;20126;-79
2021/07/02 07:17:47;;;;;;;5.57;2.58;;;;;;;19.07;67.51;99980.38;5074311;28;20139;-79
2021/07/02 07:20:15;;;;;;;5.05;2.65;;;;;;;19.08;67.06;99982.09;5092335;28;20394;-78
2021/07/02 07:22:46;;;;;;;5.63;2.88;;;;;;;19.26;67.35;99982.94;5092584;28;20075;-79
2021/07/02 07:25:15;;;;;;;5.63;2.58;;;;;;;19.40;66.69;99977.00;5092454;28;20394;-78
2021/07/02 07:27:45;;;;;;;4.70;2.65;;;;;;;19.27;66.96;99970.28;5092664;28;20044;-78
2021/07/02 07:30:14;;;;;;;4.22;2.60;;;;;;;19.27;67.04;99976.53;5092440;28;20044;-79
2021/07/02 07:32:42;;;;;;;4.90;2.78;;;;;;;19.50;65.65;99973.38;5092627;28;20097;-76
2021/07/02 07:35:22;;;;;;;5.03;3.03;;;;;;;19.51;65.52;99972.38;5073955;28;20081;-79
2021/07/02 07:37:54;;;;;;;4.82;3.40;;;;;;;19.58;64.90;99978.84;5096243;28;20063;-77
2021/07/02 07:40:24;;;;;;;4.97;2.67;;;;;;;19.65;64.97;99974.53;5096620;28;20101;-77
2021/07/02 07:42:56;;;;;;;6.10;3.22;;;;;;;19.50;65.82;99986.91;5096145;28;20044;-79
2021/07/02 07:45:29;;;;;;;6.40;3.45;;;;;;;19.38;65.84;99978.16;5096010;28;20040;-78
2021/07/02 07:47:58;;;;;;;5.32;3.03;;;;;;;19.52;65.42;99980.31;5095817;28;20060;-79
2021/07/02 07:50:28;;;;;;;5.70;3.33;;;;;;;19.59;64.46;99991.38;5096214;28;20047;-77
2021/07/02 07:53:00;;;;;;;5.32;3.20;;;;;;;19.56;65.19;99994.41;5095854;28;20040;-80
2021/07/02 07:55:29;;;;;;;5.03;3.25;;;;;;;19.60;64.43;99990.41;5096107;28;20055;-77
2021/07/02 07:57:58;;;;;;;8.35;3.30;;;;;;;19.80;63.67;99986.50;5095652;28;20054;-78
2021/07/02 08:00:28;;;;;;;5.97;3.33;;;;;;;19.80;63.29;99989.19;5095616;28;20071;-77
2021/07/02 08:02:56;;;;;;;4.25;3.05;;;;;;;19.64;64.36;99989.06;5096245;28;20071;-76
2021/07/02 08:05:25;;;;;;;5.47;3.50;;;;;;;19.72;64.55;99981.00;5095767;28;20044;-77
2021/07/02 08:07:55;;;;;;;5.95;3.38;;;;;;;20.06;62.72;99982.94;5095643;28;20054;-78
2021/07/02 08:10:26;;;;;;;5.20;3.50;;;;;;;20.18;62.98;99976.25;5095439;28;20044;-77
2021/07/02 08:12:57;;;;;;;4.10;3.03;;;;;;;20.43;61.59;99977.25;5095711;28;20063;-77
2021/07/02 08:15:25;;;;;;;6.43;3.50;;;;;;;20.50;61.10;99989.97;5095797;28;20064;-77
2021/07/02 08:17:53;;;;;;;6.00;3.58;;;;;;;20.69;61.19;99986.16;5095396;28;20084;-79
2021/07/02 08:20:22;;;;;;;6.40;3.65;;;;;;;20.80;60.31;99988.56;5095374;28;20490;-78
2021/07/02 08:22:51;;;;;;;6.55;3.50;;;;;;;20.77;60.61;99982.66;5095427;28;20040;-77
2021/07/02 08:25:19;;;;;;;7.53;3.03;;;;;;;21.04;60.47;99985.09;5095041;28;20075;-78
2021/07/02 08:30:36;;;;;;;6.65;3.10;;;;;;;21.10;60.05;99981.69;5095312;28;20032;-78
2021/07/02 08:33:05;;;;;;;6.80;3.60;;;;;;;21.13;59.52;99985.94;5095171;28;20040;-78
2021/07/02 08:35:33;;;;;;;5.65;3.78;;;;;;;21.15;60.36;99987.50;5094920;28;20040;-79
2021/07/02 08:38:01;;;;;;;5.68;3.47;;;;;;;21.21;59.09;99993.25;5094498;28;20036;-78
2021/07/02 08:40:29;;;;;;;7.53;3.50;;;;;;;21.39;59.75;99988.56;5095238;28;20450;-78
2021/07/02 08:43:01;;;;;;;4.95;3.35;;;;;;;21.53;58.36;99979.78;5095252;28;20040;-81
2021/07/02 08:45:29;;;;;;;6.43;3.42;;;;;;;21.64;58.64;99976.72;5095027;28;20040;-79
2021/07/02 08:48:02;;;;;;;10.00;3.40;;;;;;;21.74;57.86;99975.69;5093930;28;20036;-78
2021/07/02 08:50:31;;;;;;;4.22;2.97;;;;;;;21.57;57.21;99975.69;5094850;28;20494;-78
2021/07/02 08:53:00;;;;;;;4.97;3.10;;;;;;;21.70;57.37;99978.72;5095046;28;20044;-78
2021/07/02 08:55:28;;;;;;;6.72;3.30;;;;;;;21.90;56.31;99972.94;5094671;28;20047;-79
2021/07/02 08:57:56;;;;;;;5.45;3.45;;;;;;;21.78;56.45;99971.59;5094588;28;20040;-78
2021/07/02 09:00:27;;;;;;;5.50;3.15;;;;;;;22.11;56.65;99967.84;5094271;28;20040;-77
2021/07/02 09:02:56;;;;;;;5.90;3.30;;;;;;;22.32;56.03;99975.44;5094674;28;20475;-78
2021/07/02 09:05:35;;;;;;;5.22;2.90;;;;;;;22.02;55.69;99968.88;5094470;28;20382;-79
2021/07/02 09:08:14;;;;;;;5.63;3.40;;;;;;;21.90;56.45;99975.66;5094531;28;20544;-79
2021/07/02 09:10:45;;;;;;;5.63;2.80;;;;;;;22.10;55.26;99971.59;5094563;28;20040;-78
2021/07/02 09:13:14;;;;;;;4.72;3.13;;;;;;;22.24;54.09;99968.16;5093886;28;20052;-80
2021/07/02 09:15:47;;;;;;;4.95;2.70;;;;;;;22.22;54.69;99964.78;5094517;28;20442;-76
2021/07/02 09:18:16;;;;;;;4.25;2.88;;;;;;;22.36;52.89;99965.91;5093949;28;20139;-76
2021/07/02 09:20:47;;;;;;;7.22;2.92;;;;;;;22.52;53.17;99960.41;5094051;28;20043;-79
2021/07/02 09:23:18;;;;;;;5.68;2.78;;;;;;;22.67;52.43;99965.94;5094043;28;20089;-79
2021/07/02 09:25:51;;;;;;;5.22;2.65;;;;;;;22.62;52.42;99964.78;5094337;28;20048;-77
2021/07/02 09:28:27;;;;;;;6.00;2.65;;;;;;;22.63;52.45;99951.03;5093981;28;20482;-77
2021/07/02 09:30:58;;;;;;;4.47;2.70;;;;;;;22.76;52.17;99962.16;5093867;28;20555;-78
2021/07/02 09:33:28;;;;;;;5.15;2.72;;;;;;;22.79;52.03;99961.81;5093917;28;20089;-78
2021/07/02 09:35:59;;;;;;;4.72;2.47;;;;;;;22.88;52.47;99948.22;5094401;28;20044;-78
2021/07/02 09:38:35;;;;;;;3.88;2.25;;;;;;;23.02;51.99;99955.59;5093443;28;20047;-77
2021/07/02 09:41:05;;;;;;;3.90;2.33;;;;;;;22.94;51.27;99958.38;5093620;28;20036;-81
2021/07/02 09:43:33;;;;;;;4.55;2.35;;;;;;;22.88;50.20;99959.94;5093794;28;20525;-76
2021/07/02 09:46:05;;;;;;;2.88;2.10;;;;;;;22.85;50.06;99947.53;5093737;28;20097;-78
2021/07/02 09:48:40;;;;;;;4.78;2.25;;;;;;;22.80;49.96;99947.19;5093695;28;20036;-77
2021/07/02 09:51:10;;;;;;;3.72;2.05;;;;;;;22.80;50.67;99940.91;5093517;28;20101;-77
2021/07/02 09:53:40;;;;;;;3.78;2.00;;;;;;;22.91;50.44;99935.09;5093678;28;20079;-77
2021/07/02 09:56:17;;;;;;;3.22;2.00;;;;;;;23.11;49.44;99927.31;5093425;28;20036;-78
2021/07/02 09:58:46;;;;;;;4.47;2.42;;;;;;;23.34;50.45;99925.41;5093288;28;20040;-77
2021/07/02 10:01:25;;;;;;;4.70;2.17;;;;;;;23.62;48.40;99920.28;5093238;28;20079;-77
2021/07/02 10:03:54;;;;;;;3.42;1.83;;;;;;;23.87;47.03;99929.06;5093604;28;20036;-77
2021/07/02 10:06:24;;;;;;;3.63;1.75;;;;;;;23.57;47.09;99921.84;5093446;28;20047;-78
2021/07/02 10:08:54;;;;;;;3.67;2.20;;;;;;;23.69;46.92;99925.84;5093431;28;20483;-79
2021/07/02 10:11:23;;;;;;;4.18;2.00;;;;;;;23.64;46.63;99912.81;5092974;28;20109;-79
2021/07/02 10:13:51;;;;;;;2.88;1.80;;;;;;;23.85;46.23;99903.91;5092861;28;20059;-78
2021/07/02 10:16:22;;;;;;;5.70;1.77;;;;;;;23.89;46.68;99917.97;5093057;28;20474;-79
2021/07/02 10:18:57;;;;;;;4.45;1.83;;;;;;;23.64;45.41;99907.34;5093167;28;20044;-79
2021/07/02 10:21:26;;;;;;;4.40;1.77;;;;;;;23.64;46.78;99909.19;5092880;28;20052;-77
2021/07/02 10:23:56;;;;;;;2.88;1.75;;;;;;;23.37;47.18;99916.91;5092959;28;20044;-77
2021/07/02 10:26:28;;;;;;;4.32;2.25;;;;;;;23.34;47.83;99906.38;5092806;28;20122;-76
2021/07/02 10:28:57;;;;;;;3.53;1.63;;;;;;;23.12;48.03;99907.25;5093413;28;20051;-77
2021/07/02 10:31:27;;;;;;;4.10;1.88;;;;;;;23.27;47.82;99913.59;5093071;28;20482;-78
2021/07/02 10:34:00;;;;;;;3.05;1.88;;;;;;;23.07;48.48;99901.50;5092814;28;20483;-79
2021/07/02 10:36:33;;;;;;;3.67;1.67;;;;;;;23.32;47.98;99905.72;5093255;28;20063;-79
2021/07/02 10:39:02;;;;;;;5.78;1.73;;;;;;;23.31;47.40;99879.53;5093140;28;20075;-77
2021/07/02 10:41:31;;;;;;;2.10;1.42;;;;;;;23.26;47.75;99897.44;5092803;28;20040;-79
2021/07/02 10:44:06;;;;;;;3.22;1.70;;;;;;;23.14;47.23;99897.03;5093079;28;20089;-77
2021/07/02 10:46:39;;;;;;;3.13;1.67;;;;;;;23.13;47.27;99900.78;5092923;28;20071;-77
2021/07/02 10:49:08;;;;;;;4.07;1.60;;;;;;;23.19;47.92;99893.78;5092589;28;20043;-78
2021/07/02 10:51:42;;;;;;;6.00;1.80;;;;;;;23.07;48.40;99880.59;5093587;28;20047;-77
2021/07/02 10:54:34;;;;;;;3.97;1.58;;;;;;;23.13;49.27;99888.00;5092999;28;20040;-77
2021/07/02 10:57:09;;;;;;;3.17;1.80;;;;;;;23.17;48.63;99887.66;5074777;28;20052;-78
2021/07/02 11:00:10;;;;;;;5.25;1.80;;;;;;;22.98;48.97;99894.44;5092702;28;20288;-78
2021/07/02 11:02:40;;;;;;;5.10;1.77;;;;;;;23.09;48.89;99894.00;5092649;28;20048;-79
2021/07/02 11:05:33;;;;;;;3.47;2.00;;;;;;;23.10;48.47;99892.97;5092439;28;20147;-79
2021/07/02 11:08:01;;;;;;;2.63;1.52;;;;;;;22.97;48.54;99887.28;5092899;28;20047;-79
2021/07/02 11:10:58;;;;;;;3.17;1.80;;;;;;;22.93;47.85;99891.41;5092832;28;20040;-79
2021/07/02 11:13:27;;;;;;;3.67;1.92;;;;;;;22.88;48.31;99893.84;5096483;28;20502;-78
2021/07/02 11:16:08;;;;;;;2.63;1.70;;;;;;;22.98;48.31;99875.41;5078569;28;20043;-78
2021/07/02 11:18:42;;;;;;;2.53;1.58;;;;;;;23.04;48.55;99886.38;5096367;28;20483;-78
2021/07/02 11:21:18;;;;;;;3.58;1.75;;;;;;;23.08;48.32;99873.28;5096256;28;20036;-79
2021/07/02 11:23:48;;;;;;;2.75;1.60;;;;;;;23.35;48.07;99877.28;5096622;28;20036;-78
2021/07/02 11:26:43;;;;;;;3.72;1.70;;;;;;;23.57;47.33;99865.53;5096434;28;20500;-79
2021/07/02 11:29:11;;;;;;;2.55;1.50;;;;;;;23.43;46.66;99875.34;5096148;28;20039;-79
2021/07/02 11:31:40;;;;;;;4.05;1.60;;;;;;;23.60;46.31;99859.72;5096221;28;20123;-78
2021/07/02 11:34:20;;;;;;;5.78;1.92;;;;;;;23.90;46.02;99876.09;5096513;28;20475;-79
2021/07/02 11:37:10;;;;;;;2.95;1.42;;;;;;;23.72;46.25;99871.00;5096291;28;20040;-77
2021/07/02 11:39:40;;;;;;;2.90;1.60;;;;;;;23.75;45.62;99854.31;5096209;28;20474;-78
2021/07/02 11:42:10;;;;;;;7.35;2.05;;;;;;;24.01;45.15;99859.28;5096376;28;20044;-77
2021/07/02 11:44:40;;;;;;;2.72;1.60;;;;;;;24.11;45.30;99853.53;5096222;28;20040;-78
2021/07/02 11:47:08;;;;;;;4.70;1.58;;;;;;;24.27;45.13;99840.56;5096269;28;20044;-77
2021/07/02 11:49:49;;;;;;;4.65;1.67;;;;;;;24.23;44.40;99843.88;5095861;28;20036;-77